Time;durP1;ratioP1;P1;durP2;ratioP2;P2;SDS_P1;SDS_P2;PMS_P1;PMS_P2;Temp;Humidity;BMP_temperature;BMP_pressure;BME280_temperature;BME280_humidity;BME280_pressure;Samples;Min_cycle;Max_cycle;Signal;HPM_P1;HPM_P2
2021/04/18 00:03:52;;;;;;;29.38;17.05;;;10.60;59.90;;;;;;9865908;29;20467;-79
2021/04/18 00:08:46;;;;;;;30.30;17.55;;;10.70;60.10;;;;;;9865535;29;20079;-80
2021/04/18 00:13:41;;;;;;;30.13;18.00;;;11.40;60.60;;;;;;9881794;29;20431;-80
2021/04/18 00:18:35;;;;;;;31.60;18.02;;;12.10;62.10;;;;;;9866739;29;20494;-79
2021/04/18 00:23:29;;;;;;;34.25;19.95;;;10.80;61.40;;;;;;9880090;28;20480;-79
2021/04/18 00:28:24;;;;;;;31.80;19.17;;;10.50;60.60;;;;;;9865943;29;20094;-79
2021/04/18 00:33:19;;;;;;;34.15;20.17;;;10.70;62.10;;;;;;9865826;29;20498;-79
2021/04/18 00:38:13;;;;;;;36.75;21.38;;;11.10;61.90;;;;;;9866318;29;20079;-79
2021/04/18 00:43:07;;;;;;;36.53;21.75;;;9.90;62.60;;;;;;9880888;29;20083;-79
2021/04/18 00:48:02;;;;;;;35.45;20.90;;;11.20;62.50;;;;;;9864302;29;20091;-79
2021/04/18 00:52:58;;;;;;;35.83;19.95;;;11.00;62.70;;;;;;9880202;29;20509;-80
2021/04/18 00:57:53;;;;;;;34.00;20.00;;;11.40;64.00;;;;;;9880679;29;20079;-78
2021/04/18 01:02:47;;;;;;;35.00;20.50;;;10.80;63.00;;;;;;9866473;29;20080;-80
2021/04/18 01:07:44;;;;;;;38.05;20.45;;;11.60;63.30;;;;;;9883027;29;20049;-79
2021/04/18 01:12:40;;;;;;;32.70;19.25;;;10.90;63.10;;;;;;9880055;29;20047;-79
2021/04/18 01:17:34;;;;;;;33.17;20.13;;;11.10;63.40;;;;;;9864137;29;20048;-79
2021/04/18 01:22:30;;;;;;;35.83;20.15;;;10.80;63.10;;;;;;9879716;29;20079;-78
2021/04/18 01:27:50;;;;;;;33.38;18.67;;;12.20;65.30;;;;;;9864341;28;20099;-79
2021/04/18 01:32:49;;;;;;;32.60;19.13;;;12.70;65.80;;;;;;9880397;29;20051;-80
2021/04/18 01:37:44;;;;;;;32.95;19.48;;;12.80;66.40;;;;;;9871721;29;20099;-81
2021/04/18 01:42:38;;;;;;;33.38;19.00;;;11.00;64.20;;;;;;9867771;29;20089;-80
2021/04/18 01:47:32;;;;;;;31.92;18.60;;;10.90;64.50;;;;;;9886972;29;20094;-80
2021/04/18 01:52:26;;;;;;;33.30;19.08;;;;;;;;;;9886677;29;20087;-80
2021/04/18 01:57:22;;;;;;;30.00;16.52;;;10.90;64.20;;;;;;9855177;29;20048;-78
2021/04/18 02:02:16;;;;;;;34.00;19.25;;;10.50;63.70;;;;;;9839422;29;20090;-79
2021/04/18 02:07:21;;;;;;;30.55;16.98;;;12.60;66.20;;;;;;9855613;29;20083;-80
2021/04/18 02:12:17;;;;;;;29.85;17.58;;;11.70;64.70;;;;;;9873204;29;20474;-80
2021/04/18 02:17:14;;;;;;;28.77;16.85;;;11.30;65.20;;;;;;9883274;29;20089;-79
2021/04/18 02:22:09;;;;;;;30.15;17.70;;;10.20;63.40;;;;;;9869601;29;20051;-79
2021/04/18 02:27:08;;;;;;;;;;;11.90;64.50;;;;;;9870112;29;20105;-80
2021/04/18 02:32:15;;;;;;;26.00;15.95;;;10.90;64.10;;;;;;9853671;29;20373;-79
2021/04/18 02:37:31;;;;;;;30.58;18.58;;;10.80;64.90;;;;;;9852899;29;20090;-80
2021/04/18 02:42:25;;;;;;;31.90;18.38;;;10.40;64.90;;;;;;9869290;29;20098;-79
2021/04/18 02:47:21;;;;;;;31.65;18.30;;;9.00;64.30;;;;;;9868574;29;20090;-80
2021/04/18 02:52:20;;;;;;;30.00;17.90;;;10.80;64.60;;;;;;9852440;29;20082;-79
2021/04/18 02:57:15;;;;;;;32.10;18.58;;;10.60;65.60;;;;;;9869667;29;20085;-79
2021/04/18 03:02:10;;;;;;;29.52;17.98;;;10.70;64.80;;;;;;9869402;29;20507;-79
2021/04/18 03:07:11;;;;;;;30.05;17.63;;;10.20;65.30;;;;;;9868085;28;20114;-80
2021/04/18 03:12:07;;;;;;;30.73;17.42;;;11.10;65.20;;;;;;9867512;29;20094;-78
2021/04/18 03:17:08;;;;;;;29.40;17.33;;;11.50;66.20;;;;;;9863801;29;20079;-80
2021/04/18 03:22:13;;;;;;;27.95;17.33;;;9.30;64.90;;;;;;9868492;29;20083;-79
2021/04/18 03:27:09;;;;;;;32.53;19.08;;;10.40;64.70;;;;;;9868479;29;20090;-78
2021/04/18 03:32:09;;;;;;;29.02;16.77;;;11.30;65.30;;;;;;9867127;29;20078;-79
2021/04/18 03:37:07;;;;;;;31.48;17.30;;;11.80;65.60;;;;;;9863303;29;20083;-79
2021/04/18 03:42:05;;;;;;;28.30;16.35;;;10.80;65.00;;;;;;9866610;29;20083;-80
2021/04/18 03:46:59;;;;;;;33.38;18.15;;;12.50;67.20;;;;;;9867568;29;20095;-79
2021/04/18 03:52:07;;;;;;;29.98;16.98;;;10.50;65.10;;;;;;9873050;29;20102;-79
2021/04/18 03:57:02;;;;;;;31.45;17.52;;;10.90;65.50;;;;;;9867476;29;20087;-80
2021/04/18 04:01:59;;;;;;;31.48;17.70;;;9.70;65.50;;;;;;9866070;29;20043;-80
2021/04/18 04:06:54;;;;;;;30.27;18.15;;;12.40;66.90;;;;;;9849946;29;20832;-80
2021/04/18 04:11:53;;;;;;;;;;;11.00;65.00;;;;;;9866597;29;20051;-79
2021/04/18 04:17:02;;;;;;;29.85;17.48;;;11.20;65.60;;;;;;9849658;29;19965;-78
2021/04/18 04:22:15;;;;;;;31.67;17.38;;;;;;;;;;9850943;29;20040;-80
2021/04/18 04:27:18;;;;;;;33.60;18.48;;;10.40;65.80;;;;;;9864710;29;20093;-80
2021/04/18 04:32:13;;;;;;;30.33;17.98;;;10.80;65.20;;;;;;9864974;29;20087;-78
2021/04/18 04:37:08;;;;;;;32.58;17.92;;;9.40;65.80;;;;;;9864757;29;20083;-79
2021/04/18 04:42:02;;;;;;;32.53;18.80;;;10.30;65.40;;;;;;9866070;29;20087;-79
2021/04/18 04:46:56;;;;;;;30.42;18.10;;;11.00;66.10;;;;;;9833206;29;20083;-80
2021/04/18 04:51:52;;;;;;;29.27;17.42;;;9.30;66.20;;;;;;9865672;29;20526;-79
2021/04/18 04:56:47;;;;;;;30.30;18.77;;;11.10;66.10;;;;;;9864193;29;20091;-79
2021/04/18 05:01:41;;;;;;;35.25;20.00;;;;;;;;;;9865480;29;20611;-79
2021/04/18 05:06:35;;;;;;;32.58;18.92;;;;;;;;;;9847923;29;20079;-80
2021/04/18 05:11:30;;;;;;;32.53;18.08;;;10.60;66.30;;;;;;9865990;29;20055;-79
2021/04/18 05:16:25;;;;;;;31.02;18.95;;;11.50;67.80;;;;;;9864249;29;20079;-79
2021/04/18 05:21:20;;;;;;;34.97;18.88;;;10.80;67.80;;;;;;9848221;29;20070;-81
2021/04/18 05:26:14;;;;;;;31.23;18.40;;;10.40;67.50;;;;;;9865260;29;20087;-78
2021/04/18 05:31:09;;;;;;;31.80;18.20;;;9.70;67.00;;;;;;9868266;29;20056;-80
2021/04/18 05:36:04;;;;;;;32.05;18.73;;;11.10;67.60;;;;;;9847764;29;20052;-79
2021/04/18 05:40:58;;;;;;;34.20;18.92;;;;;;;;;;9847959;29;20557;-80
2021/04/18 05:45:53;;;;;;;29.75;18.20;;;9.10;65.70;;;;;;9859631;29;20491;-80
2021/04/18 05:50:48;;;;;;;33.40;19.52;;;;;;;;;;9864756;29;20091;-80
2021/04/18 05:55:43;;;;;;;31.00;18.88;;;11.10;65.50;;;;;;9847567;29;20205;-79
2021/04/18 06:00:37;;;;;;;32.95;18.75;;;10.30;64.60;;;;;;9863062;29;20079;-79
2021/04/18 06:05:31;;;;;;;34.33;18.75;;;11.50;65.10;;;;;;9847833;29;20083;-79
2021/04/18 06:10:29;;;;;;;32.85;19.65;;;10.50;64.20;;;;;;9864317;29;20513;-79
2021/04/18 06:15:25;;;;;;;30.92;18.92;;;;;;;;;;9864278;29;20404;-80
2021/04/18 06:20:18;;;;;;;33.17;19.88;;;10.80;64.10;;;;;;9850489;29;20463;-79
2021/04/18 06:25:15;;;;;;;32.97;19.38;;;10.90;64.50;;;;;;9870230;29;20117;-79
2021/04/18 06:30:14;;;;;;;31.77;19.17;;;10.80;64.50;;;;;;9872636;29;20051;-80
2021/04/18 06:35:10;;;;;;;34.97;19.10;;;12.10;66.50;;;;;;9876391;29;20052;-79
2021/04/18 06:40:06;;;;;;;33.42;19.55;;;12.30;66.60;;;;;;9854746;29;20134;-80
2021/04/18 06:45:01;;;;;;;30.75;17.65;;;11.10;64.80;;;;;;9870417;29;20048;-80
2021/04/18 06:49:56;;;;;;;33.83;18.55;;;11.50;65.80;;;;;;9868243;29;20494;-79
2021/04/18 06:54:50;;;;;;;32.08;19.45;;;10.90;64.30;;;;;;9869427;29;20075;-80
2021/04/18 06:59:44;;;;;;;32.38;19.17;;;10.80;64.30;;;;;;9869662;29;20089;-79
2021/04/18 07:04:37;;;;;;;28.13;17.35;;;10.60;63.30;;;;;;9868955;29;20085;-80
2021/04/18 07:09:44;;;;;;;27.42;16.17;;;12.20;63.70;;;;;;9868889;29;20082;-80
2021/04/18 07:14:37;;;;;;;30.10;16.50;;;13.50;64.20;;;;;;9868681;29;20079;-80
2021/04/18 07:19:36;;;;;;;28.42;15.27;;;11.40;64.00;;;;;;9868401;29;20509;-79
2021/04/18 07:24:32;;;;;;;24.52;14.52;;;;;;;;;;9868525;29;20075;-79
2021/04/18 07:29:29;;;;;;;24.13;14.55;;;11.40;62.50;;;;;;9868182;29;20083;-80
2021/04/18 07:34:24;;;;;;;25.83;15.00;;;11.80;63.70;;;;;;9867756;29;20110;-79
2021/04/18 07:39:19;;;;;;;28.15;15.68;;;13.00;64.30;;;;;;9855266;29;20055;-79
2021/04/18 07:44:17;;;;;;;31.33;17.30;;;11.60;62.20;;;;;;9869775;29;20056;-79
2021/04/18 07:49:14;;;;;;;27.05;16.35;;;13.60;63.10;;;;;;9835221;29;20086;-80
2021/04/18 07:54:08;;;;;;;29.75;17.25;;;;;;;;;;9866830;29;20442;-81
2021/04/18 07:59:02;;;;;;;29.98;17.58;;;11.70;62.20;;;;;;9866056;29;20079;-80
2021/04/18 08:03:56;;;;;;;26.33;15.60;;;11.30;61.40;;;;;;9867266;29;20091;-80
2021/04/18 08:08:55;;;;;;;24.15;14.63;;;11.40;61.90;;;;;;9834704;29;20534;-79
2021/04/18 08:13:52;;;;;;;26.25;14.90;;;10.90;61.60;;;;;;9865267;29;20082;-80
2021/04/18 08:18:48;;;;;;;25.30;15.15;;;11.90;61.80;;;;;;9865193;29;20462;-79
2021/04/18 08:23:46;;;;;;;25.90;14.37;;;13.50;61.70;;;;;;9864743;29;20066;-80
2021/04/18 08:29:08;;;;;;;22.83;13.95;;;11.80;60.40;;;;;;9864690;29;21016;-80
2021/04/18 08:34:05;;;;;;;25.40;14.68;;;12.40;61.70;;;;;;9866104;29;20443;-80
2021/04/18 08:39:34;;;;;;;22.80;13.93;;;12.50;61.40;;;;;;9849063;29;20097;-81
2021/04/18 08:44:32;;;;;;;25.75;15.35;;;12.40;61.30;;;;;;9785951;29;20090;-79
2021/04/18 08:49:29;;;;;;;25.55;15.23;;;;;;;;;;9866355;29;20087;-80
2021/04/18 08:54:25;;;;;;;23.13;14.43;;;;;;;;;;9859424;29;20091;-79
2021/04/18 08:59:21;;;;;;;28.42;15.52;;;11.90;60.50;;;;;;9865085;29;20469;-80
2021/04/18 09:04:21;;;;;;;27.40;16.08;;;13.20;60.00;;;;;;9864074;29;20083;-78
2021/04/18 09:09:17;;;;;;;32.15;17.02;;;12.50;60.50;;;;;;9863489;29;20091;-80
2021/04/18 09:14:11;;;;;;;22.42;13.65;;;11.40;59.60;;;;;;9865058;29;20408;-80
2021/04/18 09:19:25;;;;;;;24.20;13.52;;;11.70;58.30;;;;;;9863943;29;20062;-81
2021/04/18 09:24:19;;;;;;;20.95;12.65;;;11.40;58.10;;;;;;9864520;29;20090;-80
2021/04/18 09:29:13;;;;;;;23.83;14.50;;;12.70;58.30;;;;;;9864411;29;20075;-80
2021/04/18 09:34:07;;;;;;;25.25;14.05;;;12.20;58.90;;;;;;9863123;29;20083;-80
2021/04/18 09:39:03;;;;;;;20.70;13.07;;;;;;;;;;9878784;29;20106;-80
2021/04/18 09:43:58;;;;;;;20.60;12.85;;;14.30;58.20;;;;;;9863054;29;20047;-81
2021/04/18 09:49:00;;;;;;;19.98;11.05;;;13.50;57.40;;;;;;9864198;29;20094;-80
2021/04/18 09:54:04;;;;;;;19.70;11.38;;;13.90;56.80;;;;;;9868953;29;20094;-79
2021/04/18 09:59:19;;;;;;;21.50;12.50;;;14.20;56.70;;;;;;9853670;29;20457;-79
2021/04/18 10:04:23;;;;;;;23.23;13.73;;;13.60;55.60;;;;;;9854251;29;20048;-80
2021/04/18 10:09:18;;;;;;;22.58;13.85;;;13.40;55.80;;;;;;9871344;29;20533;-79
2021/04/18 10:14:19;;;;;;;19.80;11.80;;;;;;;;;;9853886;29;20104;-79
2021/04/18 10:19:18;;;;;;;22.40;11.30;;;14.60;57.50;;;;;;9882572;29;20086;-80
2021/04/18 10:24:35;;;;;;;23.65;11.95;;;15.30;56.50;;;;;;9870233;29;20094;-81
2021/04/18 10:29:30;;;;;;;17.15;8.70;;;15.00;57.50;;;;;;9867446;29;20098;-80
2021/04/18 10:34:24;;;;;;;15.95;8.40;;;15.10;57.10;;;;;;9869941;29;20057;-80
2021/04/18 10:39:18;;;;;;;15.35;8.65;;;15.10;55.80;;;;;;9837691;29;20051;-80
2021/04/18 10:44:16;;;;;;;14.45;7.28;;;14.20;55.10;;;;;;9853112;29;20504;-80
2021/04/18 10:49:10;;;;;;;14.50;7.00;;;14.90;55.40;;;;;;9869494;29;20082;-79
2021/04/18 10:54:06;;;;;;;14.73;7.28;;;13.20;54.30;;;;;;9852603;29;20102;-81
2021/04/18 10:59:00;;;;;;;13.13;7.03;;;;;;;;;;9855519;29;20054;-81
2021/04/18 11:03:56;;;;;;;11.93;7.07;;;13.60;54.30;;;;;;9850398;29;20422;-80
2021/04/18 11:08:50;;;;;;;14.00;8.18;;;14.50;54.60;;;;;;9867643;29;20087;-82
2021/04/18 11:13:44;;;;;;;11.77;6.82;;;15.70;56.10;;;;;;9869077;29;20438;-80
2021/04/18 11:18:40;;;;;;;12.75;7.40;;;;;;;;;;9852642;29;20104;-80
2021/04/18 11:23:36;;;;;;;18.52;10.00;;;;;;;;;;9850951;29;20083;-80
2021/04/18 11:28:31;;;;;;;12.52;6.10;;;15.20;55.90;;;;;;9835367;29;20087;-80
2021/04/18 11:33:25;;;;;;;9.23;5.85;;;;;;;;;;9835730;29;20059;-80
2021/04/18 11:38:22;;;;;;;13.13;6.20;;;15.10;57.00;;;;;;9867927;29;20498;-82
2021/04/18 11:43:21;;;;;;;13.05;7.13;;;14.10;56.90;;;;;;9850620;29;20090;-80
2021/04/18 11:48:14;;;;;;;14.23;7.43;;;14.40;56.40;;;;;;9851858;28;20251;-82
2021/04/18 11:53:09;;;;;;;13.00;7.35;;;15.70;56.40;;;;;;9866669;29;20484;-81
2021/04/18 11:58:03;;;;;;;14.75;8.00;;;14.10;55.50;;;;;;9869199;29;20087;-82
2021/04/18 12:02:59;;;;;;;13.18;7.47;;;14.10;54.10;;;;;;9850349;29;20517;-80
2021/04/18 12:07:53;;;;;;;12.73;7.25;;;;;;;;;;9870671;29;20052;-81
2021/04/18 12:12:49;;;;;;;12.68;7.80;;;14.90;56.50;;;;;;9849234;29;20090;-81
2021/04/18 12:17:43;;;;;;;13.75;7.95;;;13.70;55.40;;;;;;9849671;29;20044;-81
2021/04/18 12:22:38;;;;;;;13.63;7.93;;;13.90;56.00;;;;;;9848816;29;20086;-80
2021/04/18 12:27:33;;;;;;;13.43;7.32;;;15.00;57.40;;;;;;9848956;29;20093;-81
2021/04/18 12:32:27;;;;;;;12.05;7.75;;;14.50;56.30;;;;;;9833681;29;20094;-81
2021/04/18 12:37:21;;;;;;;13.90;7.38;;;13.90;56.90;;;;;;9865837;29;20495;-80
2021/04/18 12:42:20;;;;;;;11.63;6.95;;;14.50;56.90;;;;;;9849523;29;20498;-81
2021/04/18 12:47:16;;;;;;;14.50;7.22;;;15.20;56.80;;;;;;9847374;29;20097;-82
2021/04/18 12:52:09;;;;;;;13.80;7.72;;;14.50;54.60;;;;;;9864744;29;20090;-81
2021/04/18 12:57:05;;;;;;;11.68;6.50;;;15.50;56.90;;;;;;9864894;29;20090;-80
2021/04/18 13:02:03;;;;;;;13.48;7.45;;;14.40;56.30;;;;;;9863613;29;20505;-81
2021/04/18 13:06:57;;;;;;;13.30;6.93;;;12.70;57.70;;;;;;9849033;29;20094;-82
2021/04/18 13:11:51;;;;;;;14.00;8.10;;;14.00;58.80;;;;;;9867347;29;20055;-79
2021/04/18 13:16:47;;;;;;;17.58;9.73;;;15.10;59.10;;;;;;9847879;29;20056;-79
2021/04/18 13:21:45;;;;;;;19.33;8.30;;;15.70;60.60;;;;;;9848267;29;20502;-80
2021/04/18 13:26:39;;;;;;;13.02;7.50;;;14.30;60.00;;;;;;9864725;29;20075;-81
2021/04/18 13:31:33;;;;;;;13.73;7.72;;;13.80;59.30;;;;;;9872428;29;20681;-80
2021/04/18 13:36:28;;;;;;;12.68;7.53;;;14.90;60.00;;;;;;9871932;29;20087;-80
2021/04/18 13:41:23;;;;;;;12.13;7.78;;;14.00;60.00;;;;;;9854892;29;20075;-81
2021/04/18 13:46:17;;;;;;;10.23;6.45;;;13.60;59.20;;;;;;9871975;29;20525;-82
2021/04/18 13:51:11;;;;;;;13.68;7.38;;;15.60;60.80;;;;;;9854362;29;20091;-82
2021/04/18 13:56:06;;;;;;;16.88;9.38;;;14.20;60.10;;;;;;9839511;29;20533;-81
2021/04/18 14:01:01;;;;;;;17.73;10.40;;;14.30;61.60;;;;;;9853906;29;20082;-82
2021/04/18 14:06:10;;;;;;;14.85;10.10;;;14.20;63.10;;;;;;9869973;29;20514;-82
2021/04/18 14:11:04;;;;;;;17.77;11.40;;;13.70;63.00;;;;;;9871113;29;20083;-82
2021/04/18 14:15:59;;;;;;;18.42;11.90;;;13.20;63.40;;;;;;9854647;29;20529;-80
2021/04/18 14:20:54;;;;;;;17.00;10.50;;;13.80;63.40;;;;;;9871241;29;20091;-82
2021/04/18 14:25:48;;;;;;;19.80;11.32;;;13.30;63.40;;;;;;9853772;29;20094;-81
2021/04/18 14:30:42;;;;;;;20.65;12.35;;;13.70;64.10;;;;;;9868660;29;20537;-81
2021/04/18 14:35:37;;;;;;;19.30;11.98;;;13.40;64.00;;;;;;9868731;29;20090;-81
2021/04/18 14:40:32;;;;;;;23.60;14.02;;;13.40;63.60;;;;;;9868928;29;20052;-81
2021/04/18 14:45:26;;;;;;;18.63;12.75;;;11.90;64.40;;;;;;9869828;29;20469;-81
2021/04/18 14:50:21;;;;;;;22.65;13.25;;;14.10;65.60;;;;;;9869670;29;20083;-80
2021/04/18 14:55:15;;;;;;;19.88;12.70;;;;;;;;;;9868174;29;20083;-81
2021/04/18 15:00:12;;;;;;;20.30;12.15;;;14.80;67.30;;;;;;9869874;29;20052;-81
2021/04/18 15:05:08;;;;;;;20.27;11.38;;;13.70;66.10;;;;;;9852369;29;20474;-80
2021/04/18 15:10:02;;;;;;;17.20;10.52;;;13.70;66.50;;;;;;9868800;29;20451;-81
2021/04/18 15:14:57;;;;;;;19.80;11.30;;;13.60;66.30;;;;;;9868745;29;20098;-81
2021/04/18 15:19:52;;;;;;;20.25;12.07;;;13.30;66.20;;;;;;9867699;28;20102;-81
2021/04/18 15:24:46;;;;;;;20.33;12.38;;;14.30;66.90;;;;;;9867582;29;20550;-81
2021/04/18 15:29:41;;;;;;;25.50;14.02;;;14.70;68.40;;;;;;9851541;29;20502;-80
2021/04/18 15:34:35;;;;;;;23.25;13.25;;;12.10;66.50;;;;;;9851361;29;20074;-80
2021/04/18 15:39:31;;;;;;;17.58;11.40;;;;;;;;;;9851032;29;20094;-80
2021/04/18 15:44:24;;;;;;;17.08;10.60;;;11.50;65.80;;;;;;9866455;29;20093;-81
2021/04/18 15:49:18;;;;;;;23.88;15.38;;;11.90;65.90;;;;;;9865762;29;20172;-80
2021/04/18 15:54:13;;;;;;;16.33;10.38;;;13.40;67.60;;;;;;9875259;29;20091;-81
2021/04/18 15:59:09;;;;;;;17.38;10.68;;;12.90;66.90;;;;;;9867270;29;20513;-80
2021/04/18 16:04:10;;;;;;;21.05;13.02;;;13.40;67.60;;;;;;9867735;29;20470;-82
2021/04/18 16:09:06;;;;;;;22.08;13.30;;;13.80;68.40;;;;;;9851349;29;20081;-82
2021/04/18 16:14:01;;;;;;;19.05;11.40;;;13.50;68.30;;;;;;9866347;29;20058;-81
2021/04/18 16:18:57;;;;;;;21.02;12.60;;;13.70;68.50;;;;;;9866525;29;20059;-81
2021/04/18 16:23:52;;;;;;;18.45;11.32;;;13.80;69.40;;;;;;9864543;29;20055;-81
2021/04/18 16:28:46;;;;;;;16.70;9.90;;;11.40;68.20;;;;;;9866292;29;20086;-81
2021/04/18 16:33:41;;;;;;;11.70;7.65;;;13.10;70.20;;;;;;9865132;29;20243;-81
2021/04/18 16:38:38;;;;;;;12.43;8.00;;;13.20;69.80;;;;;;9866860;29;20052;-81
2021/04/18 16:43:32;;;;;;;12.13;7.15;;;12.90;70.00;;;;;;9877839;29;20087;-80
2021/04/18 16:48:29;;;;;;;15.18;7.97;;;12.30;70.60;;;;;;9880248;29;20079;-80
2021/04/18 16:53:23;;;;;;;14.00;7.85;;;12.20;70.00;;;;;;9865464;29;20086;-80
2021/04/18 16:58:19;;;;;;;15.15;8.70;;;13.50;70.80;;;;;;9848891;29;20098;-80
2021/04/18 17:03:13;;;;;;;13.65;7.57;;;13.20;71.10;;;;;;9847446;29;20418;-80
2021/04/18 17:08:11;;;;;;;15.30;8.48;;;12.50;70.60;;;;;;9863702;29;20075;-81
2021/04/18 17:13:07;;;;;;;17.38;9.75;;;11.40;69.30;;;;;;9865217;29;20414;-81
2021/04/18 17:18:03;;;;;;;12.68;8.27;;;13.50;70.40;;;;;;9847630;29;20052;-81
2021/04/18 17:22:58;;;;;;;13.15;7.80;;;;;;;;;;9864724;29;20442;-81
2021/04/18 17:27:52;;;;;;;13.75;8.32;;;13.70;70.70;;;;;;9864949;29;20466;-80
2021/04/18 17:32:47;;;;;;;12.93;7.78;;;11.90;70.00;;;;;;9864752;29;20063;-79
2021/04/18 17:37:42;;;;;;;14.77;8.45;;;12.10;71.20;;;;;;9847482;29;20094;-80
2021/04/18 17:42:36;;;;;;;13.10;8.10;;;13.70;71.70;;;;;;9863249;29;20093;-81
2021/04/18 17:47:30;;;;;;;14.75;8.43;;;11.60;71.10;;;;;;9847713;29;20052;-81
2021/04/18 17:52:27;;;;;;;13.95;7.93;;;11.10;71.30;;;;;;9862907;29;20110;-80
2021/04/18 17:57:24;;;;;;;15.15;8.65;;;12.30;72.50;;;;;;9864531;29;20662;-81
2021/04/18 18:02:21;;;;;;;18.02;8.98;;;12.20;72.60;;;;;;9864918;29;20075;-82
2021/04/18 18:07:15;;;;;;;15.48;9.05;;;11.20;71.60;;;;;;9846858;29;20047;-80
2021/04/18 18:12:10;;;;;;;15.13;9.30;;;;;;;;;;9862521;29;20090;-80
2021/04/18 18:17:06;;;;;;;18.40;11.13;;;13.70;73.30;;;;;;9870480;29;20079;-80
2021/04/18 18:21:59;;;;;;;14.95;9.35;;;11.30;72.50;;;;;;9870680;29;20094;-81
2021/04/18 18:26:53;;;;;;;17.77;10.23;;;11.70;72.70;;;;;;9870719;29;20462;-80
2021/04/18 18:31:47;;;;;;;17.67;9.70;;;11.30;72.80;;;;;;9870320;29;20153;-80
2021/04/18 18:36:43;;;;;;;15.07;10.07;;;11.00;72.60;;;;;;9870323;29;20083;-79
2021/04/18 18:41:37;;;;;;;19.50;10.95;;;12.50;73.80;;;;;;9870140;29;20055;-78
2021/04/18 18:46:32;;;;;;;18.60;10.55;;;11.10;72.70;;;;;;9852351;29;20061;-80
2021/04/18 18:51:26;;;;;;;14.68;9.82;;;11.20;73.20;;;;;;9852581;29;20087;-81
2021/04/18 18:56:23;;;;;;;18.02;9.65;;;13.10;74.00;;;;;;9870281;29;20086;-80
2021/04/18 19:01:20;;;;;;;18.80;10.95;;;11.60;73.30;;;;;;9869452;29;20055;-81
2021/04/18 19:06:15;;;;;;;20.63;11.35;;;11.80;75.00;;;;;;9869427;29;20075;-81
2021/04/18 19:11:10;;;;;;;17.88;11.05;;;13.10;75.30;;;;;;9867853;29;20486;-80
2021/04/18 19:16:05;;;;;;;18.38;10.95;;;13.40;74.90;;;;;;9867759;29;20089;-80
2021/04/18 19:21:00;;;;;;;18.08;11.48;;;11.20;73.80;;;;;;9868818;29;20090;-81
2021/04/18 19:25:54;;;;;;;18.00;11.68;;;12.50;75.10;;;;;;9868560;29;20086;-79
2021/04/18 19:30:49;;;;;;;19.08;11.30;;;13.70;75.20;;;;;;9850657;29;20098;-80
2021/04/18 19:35:44;;;;;;;19.52;11.40;;;12.10;74.40;;;;;;9868655;29;20091;-80
2021/04/18 19:40:42;;;;;;;18.58;11.55;;;11.90;74.10;;;;;;9851429;29;20067;-81
2021/04/18 19:45:36;;;;;;;18.70;11.30;;;13.40;75.00;;;;;;9867850;29;20094;-80
2021/04/18 19:50:30;;;;;;;18.38;11.10;;;;;;;;;;9867638;29;20102;-80
2021/04/18 19:55:25;;;;;;;17.35;10.95;;;12.90;74.70;;;;;;9867272;29;20075;-81
2021/04/18 20:00:21;;;;;;;20.00;11.13;;;12.10;73.70;;;;;;9850179;29;20059;-80
2021/04/18 20:05:15;;;;;;;18.02;10.90;;;11.50;74.40;;;;;;9866917;29;20086;-82
2021/04/18 20:10:11;;;;;;;17.92;10.95;;;12.50;74.20;;;;;;9865662;29;20108;-82
2021/04/18 20:15:09;;;;;;;20.15;11.07;;;11.70;73.90;;;;;;9865687;28;20048;-79
2021/04/18 20:20:06;;;;;;;18.55;11.00;;;;;;;;;;9866680;29;20486;-81
2021/04/18 20:25:02;;;;;;;18.95;11.07;;;12.90;75.70;;;;;;9866630;29;20090;-80
2021/04/18 20:29:56;;;;;;;18.42;10.65;;;11.60;74.50;;;;;;9849076;29;20091;-78
2021/04/18 20:34:52;;;;;;;19.42;11.23;;;11.80;74.80;;;;;;9866542;29;20079;-80
2021/04/18 20:39:47;;;;;;;18.60;10.98;;;12.00;75.50;;;;;;9864890;29;20091;-80
2021/04/18 20:44:42;;;;;;;19.75;11.45;;;;;;;;;;9848748;29;20086;-81
2021/04/18 20:49:38;;;;;;;19.45;11.15;;;10.70;73.70;;;;;;9848985;29;20087;-81
2021/04/18 20:54:33;;;;;;;18.88;12.05;;;11.80;74.40;;;;;;9865717;29;20098;-81
2021/04/18 20:59:27;;;;;;;17.38;11.13;;;11.00;74.30;;;;;;9864496;28;20059;-81
2021/04/18 21:04:22;;;;;;;21.27;12.07;;;11.20;74.60;;;;;;9864010;29;20079;-80
2021/04/18 21:09:19;;;;;;;20.50;12.75;;;12.00;74.90;;;;;;9848647;29;20097;-80
2021/04/18 21:14:14;;;;;;;22.30;13.98;;;11.20;74.60;;;;;;9864555;29;20094;-80
2021/04/18 21:19:09;;;;;;;22.60;14.60;;;13.10;76.00;;;;;;9865040;29;20603;-80
2021/04/18 21:24:03;;;;;;;22.35;14.23;;;13.70;76.60;;;;;;9864921;29;20068;-79
2021/04/18 21:28:57;;;;;;;24.92;14.32;;;13.20;76.40;;;;;;9847796;29;20486;-81
2021/04/18 21:33:53;;;;;;;24.02;14.88;;;;;;;;;;9864943;29;20517;-80
2021/04/18 21:38:47;;;;;;;25.25;14.90;;;11.10;75.60;;;;;;9864727;29;20518;-80
2021/04/18 21:43:44;;;;;;;24.33;14.85;;;11.10;75.60;;;;;;9847760;29;20078;-80
2021/04/18 21:48:40;;;;;;;24.17;15.25;;;11.70;76.30;;;;;;9865894;29;20052;-80
2021/04/18 21:53:38;;;;;;;25.98;15.40;;;10.90;75.30;;;;;;9871607;29;20079;-81
2021/04/18 21:58:36;;;;;;;27.30;16.20;;;12.10;76.60;;;;;;9872577;29;20359;-81
2021/04/18 22:03:32;;;;;;;26.02;16.02;;;10.30;75.10;;;;;;9871686;29;20050;-80
2021/04/18 22:08:27;;;;;;;25.55;16.13;;;12.90;76.80;;;;;;9871612;29;20525;-81
2021/04/18 22:13:21;;;;;;;27.67;16.38;;;12.10;77.00;;;;;;9871377;29;20090;-80
2021/04/18 22:18:15;;;;;;;27.27;17.17;;;12.00;77.60;;;;;;9869638;29;20075;-81
2021/04/18 22:23:09;;;;;;;24.77;15.80;;;;;;;;;;9853506;29;20059;-81
2021/04/18 22:28:04;;;;;;;25.83;15.30;;;12.50;77.20;;;;;;9835891;29;20080;-81
2021/04/18 22:32:59;;;;;;;23.88;14.30;;;11.70;76.70;;;;;;9816428;29;20088;-81
2021/04/18 22:37:54;;;;;;;24.67;15.65;;;;;;;;;;9832648;29;20083;-81
2021/04/18 22:42:49;;;;;;;24.73;14.82;;;12.40;77.60;;;;;;9832934;29;20083;-80
2021/04/18 22:47:42;;;;;;;22.50;14.40;;;10.90;76.90;;;;;;9832648;29;20522;-80
2021/04/18 22:52:38;;;;;;;20.95;13.98;;;13.20;77.80;;;;;;9831430;29;20098;-80
2021/04/18 22:57:32;;;;;;;21.40;13.40;;;;;;;;;;9831564;29;20541;-81
2021/04/18 23:02:26;;;;;;;23.90;14.10;;;12.20;78.40;;;;;;9813567;29;20109;-81
2021/04/18 23:07:20;;;;;;;21.25;13.52;;;11.10;77.80;;;;;;9820446;29;20056;-80
2021/04/18 23:12:15;;;;;;;21.88;13.43;;;12.60;78.80;;;;;;9814468;29;20496;-81
2021/04/18 23:17:09;;;;;;;21.08;12.68;;;12.40;78.80;;;;;;9814263;29;20068;-81
2021/04/18 23:22:03;;;;;;;20.65;12.80;;;11.00;77.70;;;;;;9831183;29;20090;-80
2021/04/18 23:26:57;;;;;;;22.80;13.43;;;11.70;77.60;;;;;;9830600;29;20077;-80
2021/04/18 23:31:52;;;;;;;19.55;12.30;;;10.60;76.60;;;;;;9813493;29;20083;-81
2021/04/18 23:36:46;;;;;;;22.08;13.25;;;11.80;77.60;;;;;;9830299;29;20079;-80
2021/04/18 23:41:39;;;;;;;20.35;12.35;;;11.40;77.00;;;;;;9813166;29;20096;-81
2021/04/18 23:46:34;;;;;;;18.80;12.27;;;;;;;;;;9830171;29;20404;-80
2021/04/18 23:51:29;;;;;;;17.60;11.85;;;11.60;77.00;;;;;;9829575;29;20094;-81
2021/04/18 23:56:23;;;;;;;22.45;12.13;;;12.00;78.00;;;;;;9829691;29;20079;-82
